Time;durP1;ratioP1;P1;durP2;ratioP2;P2;SDS_P1;SDS_P2;PMS_P1;PMS_P2;Temp;Humidity;BMP_temperature;BMP_pressure;BME280_temperature;BME280_humidity;BME280_pressure;Samples;Min_cycle;Max_cycle;Signal;HPM_P1;HPM_P2
2022/07/02 00:00:27;;;;;;;;;;;17.30;99.90;;;;;;5032872;28;20418;-51
2022/07/02 00:03:13;;;;;;;;;;;17.30;99.90;;;;;;5032949;28;19919;-54
2022/07/02 00:05:59;;;;;;;;;;;17.20;99.90;;;;;;5032185;28;19932;-52
2022/07/02 00:08:45;;;;;;;;;;;17.10;99.90;;;;;;5031728;28;19920;-51
2022/07/02 00:11:31;;;;;;;;;;;17.00;99.90;;;;;;5031735;28;20000;-51
2022/07/02 00:14:15;;;;;;;;;;;16.90;99.90;;;;;;5033522;28;19979;-53
2022/07/02 00:17:00;;;;;;;;;;;16.90;99.90;;;;;;5035545;28;20288;-48
2022/07/02 00:19:44;;;;;;;;;;;16.80;99.90;;;;;;5036221;28;20016;-55
2022/07/02 00:22:29;;;;;;;;;;;16.70;99.90;;;;;;5036314;28;19935;-53
2022/07/02 00:25:13;;;;;;;;;;;16.70;99.90;;;;;;5035982;28;20631;-46
2022/07/02 00:27:58;;;;;;;;;;;16.70;99.90;;;;;;5035655;28;19920;-47
2022/07/02 00:30:46;;;;;;;;;;;16.60;99.90;;;;;;5036847;28;20410;-46
2022/07/02 00:33:33;;;;;;;;;;;16.60;99.90;;;;;;5002877;28;19939;-49
2022/07/02 00:36:23;;;;;;;;;;;16.60;99.90;;;;;;5022403;28;20375;-52
2022/07/02 00:39:07;;;;;;;;;;;16.70;99.90;;;;;;5036398;28;19959;-52
2022/07/02 00:41:54;;;;;;;;;;;16.80;99.90;;;;;;5036311;28;19925;-48
2022/07/02 00:44:39;;;;;;;;;;;16.70;99.90;;;;;;5019529;28;20040;-49
2022/07/02 00:47:23;;;;;;;;;;;16.70;99.90;;;;;;5035851;28;20059;-51
2022/07/02 00:50:08;;;;;;;;;;;16.70;99.90;;;;;;5036354;28;19912;-51
2022/07/02 00:52:52;;;;;;;;;;;16.70;99.90;;;;;;5036686;28;19928;-47
2022/07/02 00:55:36;;;;;;;;;;;16.70;99.90;;;;;;5035389;28;20307;-46
2022/07/02 00:58:20;;;;;;;;;;;16.80;99.90;;;;;;5024198;28;19935;-48
2022/07/02 01:01:05;;;;;;;;;;;16.90;99.90;;;;;;5038210;28;19920;-51
2022/07/02 01:03:51;;;;;;;;;;;16.90;99.90;;;;;;5040054;28;20112;-49
2022/07/02 01:06:36;;;;;;;;;;;16.80;99.90;;;;;;5038904;28;19923;-52
2022/07/02 01:12:25;;;;;;;;;;;16.80;99.90;;;;;;5028441;28;19920;-53
2022/07/02 01:15:10;;;;;;;;;;;16.80;99.90;;;;;;5039961;28;19991;-51
2022/07/02 01:17:54;;;;;;;;;;;16.70;99.90;;;;;;5038874;28;19955;-55
2022/07/02 01:20:38;;;;;;;;;;;16.80;99.90;;;;;;5021860;28;19928;-53
2022/07/02 01:23:22;;;;;;;;;;;16.80;99.90;;;;;;5035284;28;19982;-51
2022/07/02 01:26:07;;;;;;;;;;;16.60;99.90;;;;;;5033605;28;19915;-49
2022/07/02 01:28:51;;;;;;;;;;;16.60;99.90;;;;;;5034869;28;19920;-51
2022/07/02 01:31:35;;;;;;;;;;;16.60;99.90;;;;;;5034868;28;19994;-52
2022/07/02 01:34:19;;;;;;;;;;;16.50;99.90;;;;;;5034032;28;19970;-47
2022/07/02 01:37:06;;;;;;;;;;;16.50;99.90;;;;;;5033314;28;20339;-47
2022/07/02 01:39:50;;;;;;;;;;;16.50;99.90;;;;;;5034458;28;20375;-46
2022/07/02 01:42:36;;;;;;;;;;;16.50;99.90;;;;;;5034624;28;19975;-49
2022/07/02 01:45:20;;;;;;;;;;;16.40;99.90;;;;;;5043629;28;20431;-49
2022/07/02 01:48:04;;;;;;;;;;;16.40;99.90;;;;;;5033641;28;19920;-48
2022/07/02 01:50:49;;;;;;;;;;;16.30;99.90;;;;;;5033430;28;19915;-47
2022/07/02 01:53:33;;;;;;;;;;;16.40;99.90;;;;;;5033513;28;19982;-50
2022/07/02 01:56:17;;;;;;;;;;;16.40;99.90;;;;;;5033081;28;20331;-52
2022/07/02 01:59:02;;;;;;;;;;;16.40;99.90;;;;;;5033691;28;19963;-53
2022/07/02 02:01:46;;;;;;;;;;;16.50;99.90;;;;;;5033083;28;20273;-50
2022/07/02 02:04:30;;;;;;;;;;;16.50;99.90;;;;;;5053398;28;20046;-50
2022/07/02 02:07:14;;;;;;;;;;;16.40;99.90;;;;;;5014008;28;19924;-50
2022/07/02 02:09:59;;;;;;;;;;;16.40;99.90;;;;;;5019986;28;20002;-47
2022/07/02 02:12:43;;;;;;;;;;;16.40;99.90;;;;;;5034668;28;19921;-49
2022/07/02 02:15:27;;;;;;;;;;;16.30;99.90;;;;;;5033533;28;19959;-46
2022/07/02 02:18:11;;;;;;;;;;;16.30;99.90;;;;;;5033626;28;20419;-49
2022/07/02 02:20:55;;;;;;;;;;;16.30;99.90;;;;;;5033240;28;19971;-46
2022/07/02 02:23:39;;;;;;;;;;;16.30;99.90;;;;;;5035095;28;19920;-48
2022/07/02 02:26:24;;;;;;;;;;;16.40;99.90;;;;;;5034642;28;19998;-51
2022/07/02 02:29:08;;;;;;;;;;;16.30;99.90;;;;;;5034690;28;19916;-50
2022/07/02 02:31:52;;;;;;;;;;;16.40;99.90;;;;;;5034297;28;19958;-49
2022/07/02 02:34:37;;;;;;;;;;;16.30;99.90;;;;;;5018658;28;19924;-52
2022/07/02 02:37:21;;;;;;;;;;;16.30;99.90;;;;;;5032967;28;19924;-52
2022/07/02 02:40:06;;;;;;;;;;;16.30;99.90;;;;;;5014018;28;19936;-49
2022/07/02 02:42:50;;;;;;;;;;;16.30;99.90;;;;;;4999839;28;19916;-51
2022/07/02 02:45:34;;;;;;;;;;;16.20;99.90;;;;;;5013589;28;19975;-55
2022/07/02 02:48:19;;;;;;;;;;;16.30;99.90;;;;;;5019882;28;20394;-49
2022/07/02 02:51:04;;;;;;;;;;;16.20;99.90;;;;;;5033929;28;19956;-48
2022/07/02 02:53:49;;;;;;;;;;;16.20;99.90;;;;;;5018372;28;19924;-50
2022/07/02 02:56:33;;;;;;;;;;;16.20;99.90;;;;;;5032333;28;19921;-50
2022/07/02 02:59:17;;;;;;;;;;;16.20;99.90;;;;;;5032251;28;19959;-50
2022/07/02 03:02:02;;;;;;;;;;;16.20;99.90;;;;;;5018620;28;19996;-51
2022/07/02 03:04:46;;;;;;;;;;;16.20;99.90;;;;;;5033983;28;20431;-51
2022/07/02 03:07:30;;;;;;;;;;;16.20;99.90;;;;;;5032716;28;19936;-48
2022/07/02 03:10:15;;;;;;;;;;;16.20;99.90;;;;;;5013786;28;20025;-51
2022/07/02 03:12:59;;;;;;;;;;;16.20;99.90;;;;;;5014687;28;20047;-49
2022/07/02 03:15:43;;;;;;;;;;;16.10;99.90;;;;;;5017789;28;19916;-49
2022/07/02 03:18:27;;;;;;;;;;;16.20;99.90;;;;;;5016639;28;19959;-47
2022/07/02 03:21:12;;;;;;;;;;;16.10;99.90;;;;;;5045360;28;19915;-48
2022/07/02 03:23:56;;;;;;;;;;;16.20;99.90;;;;;;5052736;28;19940;-48
2022/07/02 03:26:41;;;;;;;;;;;16.20;99.90;;;;;;5051575;28;20268;-49
2022/07/02 03:29:25;;;;;;;;;;;16.20;99.90;;;;;;5038980;28;20411;-52
2022/07/02 03:32:09;;;;;;;;;;;16.20;99.90;;;;;;5032171;28;20112;-54
2022/07/02 03:34:53;;;;;;;;;;;16.10;99.90;;;;;;5031390;28;19924;-55
2022/07/02 03:37:37;;;;;;;;;;;16.10;99.90;;;;;;5031689;28;20086;-56
2022/07/02 03:40:22;;;;;;;;;;;16.20;99.90;;;;;;5031832;28;19975;-54
2022/07/02 03:43:06;;;;;;;;;;;16.20;99.90;;;;;;5031579;28;19931;-54
2022/07/02 03:45:50;;;;;;;;;;;16.30;99.90;;;;;;5031690;28;19912;-51
2022/07/02 03:48:34;;;;;;;;;;;16.30;99.90;;;;;;5015566;28;20424;-50
2022/07/02 03:51:19;;;;;;;;;;;16.20;99.90;;;;;;5016617;28;19912;-48
2022/07/02 03:54:03;;;;;;;;;;;16.30;99.90;;;;;;5031362;28;19924;-48
2022/07/02 03:56:48;;;;;;;;;;;16.30;99.90;;;;;;5031365;28;19958;-47
2022/07/02 03:59:32;;;;;;;;;;;16.30;99.90;;;;;;5031423;28;19943;-51
2022/07/02 04:02:16;;;;;;;;;;;16.30;99.90;;;;;;5032141;28;19936;-47
2022/07/02 04:05:00;;;;;;;;;;;16.30;99.90;;;;;;5012756;28;20280;-52
2022/07/02 04:07:45;;;;;;;;;;;16.30;99.90;;;;;;5014226;28;19917;-55
2022/07/02 04:10:29;;;;;;;;;;;16.20;99.90;;;;;;5032182;28;19927;-52
2022/07/02 04:13:13;;;;;;;;;;;16.20;99.90;;;;;;5017851;28;20279;-51
2022/07/02 04:15:57;;;;;;;;;;;16.30;99.90;;;;;;5032840;28;19920;-47
2022/07/02 04:18:41;;;;;;;;;;;16.40;99.90;;;;;;5033592;28;19916;-52
2022/07/02 04:21:26;;;;;;;;;;;16.40;99.90;;;;;;5033402;28;19919;-50
2022/07/02 04:24:10;;;;;;;;;;;16.30;99.90;;;;;;5032717;28;20008;-47
2022/07/02 04:26:55;;;;;;;;;;;16.30;99.90;;;;;;5031655;28;19920;-47
2022/07/02 04:29:39;;;;;;;;;;;16.20;99.90;;;;;;5032700;28;19963;-53
2022/07/02 04:32:23;;;;;;;;;;;16.30;99.90;;;;;;5032028;28;19955;-54
2022/07/02 04:35:07;;;;;;;;;;;16.40;99.90;;;;;;5032093;28;19976;-54
2022/07/02 04:37:51;;;;;;;;;;;16.40;99.90;;;;;;5032389;28;19994;-54
2022/07/02 04:40:36;;;;;;;;;;;16.40;99.90;;;;;;5032888;28;20391;-50
2022/07/02 04:43:20;;;;;;;;;;;16.40;99.90;;;;;;5016983;28;19916;-52
2022/07/02 04:46:04;;;;;;;;;;;16.40;99.90;;;;;;5032235;28;20387;-50
2022/07/02 04:48:49;;;;;;;;;;;16.40;99.90;;;;;;5032635;28;19937;-52
2022/07/02 04:51:33;;;;;;;;;;;16.40;99.90;;;;;;5019663;28;19963;-52
2022/07/02 04:54:17;;;;;;;;;;;16.30;99.90;;;;;;5033232;28;20000;-49
2022/07/02 04:57:02;;;;;;;;;;;16.40;99.90;;;;;;5033590;28;19966;-51
2022/07/02 04:59:46;;;;;;;;;;;16.50;99.90;;;;;;5039424;28;20423;-53
2022/07/02 05:02:30;;;;;;;;;;;16.50;99.90;;;;;;5016690;28;19921;-53
2022/07/02 05:05:14;;;;;;;;;;;16.60;99.90;;;;;;5021128;28;20023;-48
2022/07/02 05:07:58;;;;;;;;;;;16.70;99.90;;;;;;5016146;28;19936;-52
2022/07/02 05:10:43;;;;;;;;;;;16.70;99.90;;;;;;5030506;28;19920;-51
2022/07/02 05:13:27;;;;;;;;;;;16.60;99.90;;;;;;5035412;28;19975;-51
2022/07/02 05:16:11;;;;;;;;;;;16.50;99.90;;;;;;5034582;28;19952;-51
2022/07/02 05:18:55;;;;;;;;;;;16.50;99.90;;;;;;5035305;28;19959;-52
2022/07/02 05:21:41;;;;;;;;;;;16.60;99.90;;;;;;5016383;28;20410;-53
2022/07/02 05:24:25;;;;;;;;;;;16.70;99.90;;;;;;5027939;28;19975;-53
2022/07/02 05:27:10;;;;;;;;;;;16.90;99.90;;;;;;5034806;28;19932;-51
2022/07/02 05:29:54;;;;;;;;;;;16.70;99.90;;;;;;5035518;28;19924;-46
2022/07/02 05:32:38;;;;;;;;;;;16.80;99.90;;;;;;5035977;28;19932;-48
2022/07/02 05:35:22;;;;;;;;;;;17.00;99.90;;;;;;5033776;28;19925;-55
2022/07/02 05:38:07;;;;;;;;;;;17.10;99.90;;;;;;5034904;28;20569;-47
2022/07/02 05:40:51;;;;;;;;;;;17.20;99.90;;;;;;5035420;28;19987;-50
2022/07/02 05:43:35;;;;;;;;;;;17.30;99.90;;;;;;5035679;28;20012;-50
2022/07/02 05:46:19;;;;;;;;;;;17.40;99.90;;;;;;5035878;28;20440;-51
2022/07/02 05:49:04;;;;;;;;;;;17.50;99.90;;;;;;5036203;28;19936;-49
2022/07/02 05:51:48;;;;;;;;;;;17.60;99.90;;;;;;5035987;28;19920;-45
2022/07/02 05:54:32;;;;;;;;;;;17.60;99.90;;;;;;5034806;28;19947;-49
2022/07/02 05:57:16;;;;;;;;;;;17.70;99.90;;;;;;5034211;28;19917;-52
2022/07/02 06:00:01;;;;;;;;;;;17.70;99.90;;;;;;5035080;28;19959;-50
2022/07/02 06:02:45;;;;;;;;;;;17.80;99.90;;;;;;5055007;28;19974;-47
2022/07/02 06:08:32;;;;;;;;;;;17.90;99.90;;;;;;5017883;28;19916;-49
2022/07/02 06:11:17;;;;;;;;;;;17.90;99.90;;;;;;5034342;28;20312;-50
2022/07/02 06:14:01;;;;;;;;;;;17.80;99.90;;;;;;5034537;28;20039;-52
2022/07/02 06:16:45;;;;;;;;;;;17.80;99.90;;;;;;5034373;28;19975;-51
2022/07/02 06:19:29;;;;;;;;;;;17.90;99.90;;;;;;5033537;28;20279;-53
2022/07/02 06:22:14;;;;;;;;;;;18.00;99.90;;;;;;5033571;28;19923;-54
2022/07/02 06:24:58;;;;;;;;;;;18.10;99.90;;;;;;5028426;28;19920;-52
2022/07/02 06:27:42;;;;;;;;;;;18.20;99.90;;;;;;5033208;28;19994;-51
2022/07/02 06:30:28;;;;;;;;;;;18.30;99.90;;;;;;5033349;28;19935;-49
2022/07/02 06:33:12;;;;;;;;;;;18.30;99.90;;;;;;5034037;28;19959;-48
2022/07/02 06:35:56;;;;;;;;;;;18.50;99.90;;;;;;5032832;28;20023;-52
2022/07/02 06:38:41;;;;;;;;;;;18.60;99.90;;;;;;5033464;28;19963;-52
2022/07/02 06:44:28;;;;;;;;;;;18.60;99.90;;;;;;5037963;28;19994;-47
2022/07/02 06:47:12;;;;;;;;;;;18.70;99.90;;;;;;5033157;28;19916;-49
2022/07/02 06:49:57;;;;;;;;;;;18.70;99.90;;;;;;5034049;28;19920;-52
2022/07/02 06:52:44;;;;;;;;;;;18.80;99.90;;;;;;5033157;28;20392;-53
2022/07/02 06:55:28;;;;;;;;;;;18.90;99.90;;;;;;5032328;28;19967;-46
2022/07/02 06:58:12;;;;;;;;;;;19.00;99.90;;;;;;5031739;28;19940;-46
2022/07/02 07:00:56;;;;;;;;;;;19.00;99.50;;;;;;5031414;28;19915;-49
2022/07/02 07:03:41;;;;;;;;;;;19.00;99.90;;;;;;5034140;28;19915;-52
2022/07/02 07:06:26;;;;;;;;;;;19.00;99.90;;;;;;5024153;28;19919;-51
2022/07/02 07:09:10;;;;;;;;;;;19.00;99.90;;;;;;5034093;28;20283;-52
2022/07/02 07:11:54;;;;;;;;;;;19.10;99.90;;;;;;5034504;28;20093;-53
2022/07/02 07:14:38;;;;;;;;;;;19.10;99.90;;;;;;5032840;28;20379;-47
2022/07/02 07:17:22;;;;;;;;;;;19.30;99.40;;;;;;5033206;28;19920;-47
2022/07/02 07:20:16;;;;;;;;;;;19.20;99.90;;;;;;5032692;28;19955;-51
2022/07/02 07:23:02;;;;;;;;;;;19.40;99.10;;;;;;5019107;28;19915;-52
2022/07/02 07:25:47;;;;;;;;;;;19.60;99.00;;;;;;5033726;28;19912;-53
2022/07/02 07:28:31;;;;;;;;;;;19.70;98.80;;;;;;5034236;28;19916;-49
2022/07/02 07:31:21;;;;;;;;;;;19.80;98.70;;;;;;5033152;28;19958;-51
2022/07/02 07:34:06;;;;;;;;;;;19.90;98.70;;;;;;5033753;28;19987;-47
2022/07/02 07:36:52;;;;;;;;;;;20.00;98.80;;;;;;5033165;28;19956;-49
2022/07/02 07:39:36;;;;;;;;;;;20.10;98.60;;;;;;5018155;28;20427;-55
2022/07/02 07:42:22;;;;;;;;;;;20.30;98.60;;;;;;5033817;28;19915;-57
2022/07/02 07:45:06;;;;;;;;;;;20.40;98.10;;;;;;5011476;28;20096;-50
2022/07/02 07:47:50;;;;;;;;;;;20.50;97.80;;;;;;5013148;28;20019;-51
2022/07/02 07:50:34;;;;;;;;;;;20.60;97.30;;;;;;5014133;28;19916;-48
2022/07/02 07:53:19;;;;;;;;;;;20.70;96.90;;;;;;5013988;28;20016;-54
2022/07/02 07:56:03;;;;;;;;;;;20.80;96.30;;;;;;5012125;28;20004;-54
2022/07/02 07:58:47;;;;;;;;;;;20.90;95.90;;;;;;5023156;28;19952;-51
2022/07/02 08:01:31;;;;;;;;;;;20.90;95.30;;;;;;5032125;28;19916;-49
2022/07/02 08:04:16;;;;;;;;;;;21.00;94.60;;;;;;5032304;28;19955;-49
2022/07/02 08:07:00;;;;;;;;;;;21.10;94.10;;;;;;5031753;28;19980;-48
2022/07/02 08:09:45;;;;;;;;;;;21.10;94.00;;;;;;5032818;28;20403;-47
2022/07/02 08:12:30;;;;;;;;;;;21.10;93.70;;;;;;5032815;28;19916;-54
2022/07/02 08:15:14;;;;;;;;;;;21.10;93.00;;;;;;5031506;28;19924;-50
2022/07/02 08:17:58;;;;;;;;;;;21.00;92.60;;;;;;5031823;28;19912;-47
2022/07/02 08:20:42;;;;;;;;;;;21.10;92.40;;;;;;5032125;28;19917;-46
2022/07/02 08:23:27;;;;;;;;;;;21.20;92.70;;;;;;5031896;28;19916;-51
2022/07/02 08:26:11;;;;;;;;;;;21.20;92.80;;;;;;5031724;28;20355;-53
2022/07/02 08:28:55;;;;;;;;;;;21.40;92.70;;;;;;5031980;28;19916;-49
2022/07/02 08:31:39;;;;;;;;;;;21.70;92.00;;;;;;5032436;28;19991;-50
2022/07/02 08:34:24;;;;;;;;;;;21.70;91.60;;;;;;5038259;28;19919;-53
2022/07/02 08:37:08;;;;;;;;;;;21.90;91.10;;;;;;5039339;28;19928;-51
2022/07/02 08:39:52;;;;;;;;;;;22.00;90.70;;;;;;5038305;28;19937;-52
2022/07/02 08:42:40;;;;;;;;;;;22.10;90.90;;;;;;5036446;28;19916;-51
2022/07/02 08:45:26;;;;;;;;;;;22.20;90.60;;;;;;5055382;28;19915;-52
2022/07/02 08:48:10;;;;;;;;;;;22.30;89.90;;;;;;5055395;28;20362;-51
2022/07/02 08:50:56;;;;;;;;;;;22.40;88.90;;;;;;5055443;28;19963;-51
2022/07/02 08:53:41;;;;;;;;;;;22.40;85.50;;;;;;5056513;28;19915;-52
2022/07/02 08:56:26;;;;;;;;;;;22.30;86.70;;;;;;5054697;28;19958;-56
2022/07/02 08:59:11;;;;;;;;;;;22.30;87.90;;;;;;5040689;28;19932;-51
2022/07/02 09:01:55;;;;;;;;;;;22.20;85.80;;;;;;5034753;28;19916;-49
2022/07/02 09:04:42;;;;;;;;;;;22.40;84.10;;;;;;5035148;28;19990;-53
2022/07/02 09:07:27;;;;;;;;;;;22.60;84.30;;;;;;5034589;28;19928;-47
2022/07/02 09:10:11;;;;;;;;;;;22.60;80.90;;;;;;5035069;28;20280;-55
2022/07/02 09:12:55;;;;;;;;;;;22.60;80.50;;;;;;5035015;28;19959;-56
2022/07/02 09:15:40;;;;;;;;;;;22.50;81.50;;;;;;5034040;28;20298;-51
2022/07/02 09:18:24;;;;;;;;;;;22.60;81.40;;;;;;5033935;28;20387;-49
2022/07/02 09:21:08;;;;;;;;;;;22.70;81.20;;;;;;5032945;28;20047;-49
2022/07/02 09:23:53;;;;;;;;;;;23.10;81.40;;;;;;5033809;28;19955;-50
2022/07/02 09:26:37;;;;;;;;;;;23.00;80.60;;;;;;5033018;28;20020;-51
2022/07/02 09:29:21;;;;;;;;;;;22.90;79.40;;;;;;5036236;28;20001;-53
2022/07/02 09:32:05;;;;;;;;;;;23.20;79.30;;;;;;5035951;28;19997;-52
2022/07/02 09:34:52;;;;;;;;;;;23.50;78.50;;;;;;5036276;28;19920;-51
2022/07/02 09:37:36;;;;;;;;;;;23.70;78.30;;;;;;5035488;28;19916;-47
2022/07/02 09:40:21;;;;;;;;;;;23.70;75.70;;;;;;5035057;28;19931;-52
2022/07/02 09:43:05;;;;;;;;;;;23.70;76.10;;;;;;5039221;28;19947;-48
2022/07/02 09:45:49;;;;;;;;;;;23.60;76.80;;;;;;5054150;28;20433;-51
2022/07/02 09:48:36;;;;;;;;;;;23.50;78.20;;;;;;5054503;28;19951;-49
2022/07/02 09:51:21;;;;;;;;;;;23.60;79.00;;;;;;5055357;28;20330;-45
2022/07/02 09:54:07;;;;;;;;;;;23.70;78.60;;;;;;5054659;28;19963;-46
2022/07/02 09:56:51;;;;;;;;;;;23.90;78.80;;;;;;5053226;28;20529;-47
2022/07/02 09:59:35;;;;;;;;;;;24.20;78.50;;;;;;5036306;28;19912;-48
2022/07/02 10:02:26;;;;;;;;;;;24.40;78.10;;;;;;5034309;28;19920;-49
2022/07/02 10:05:10;;;;;;;;;;;24.60;77.80;;;;;;5034012;28;19916;-52
2022/07/02 10:07:55;;;;;;;;;;;24.60;75.80;;;;;;5033631;28;19955;-50
2022/07/02 10:10:40;;;;;;;;;;;24.60;75.10;;;;;;5034190;28;19940;-48
2022/07/02 10:13:24;;;;;;;;;;;24.50;74.90;;;;;;5035063;28;19920;-48
2022/07/02 10:16:14;;;;;;;;;;;24.60;72.90;;;;;;5033513;28;20379;-48
2022/07/02 10:18:59;;;;;;;;;;;24.60;72.50;;;;;;5033559;28;19931;-47
2022/07/02 10:21:43;;;;;;;;;;;24.60;72.20;;;;;;5033948;28;19916;-55
2022/07/02 10:24:27;;;;;;;;;;;24.60;72.10;;;;;;5034062;28;19920;-53
2022/07/02 10:27:12;;;;;;;;;;;24.80;71.40;;;;;;5032936;28;19987;-50
2022/07/02 10:29:57;;;;;;;;;;;24.80;71.30;;;;;;5033791;28;20321;-48
2022/07/02 10:32:50;;;;;;;;;;;25.00;71.20;;;;;;5033703;28;19916;-49
2022/07/02 10:35:34;;;;;;;;;;;25.10;70.00;;;;;;5033087;28;19924;-46
2022/07/02 10:38:29;;;;;;;;;;;24.70;69.20;;;;;;5032926;28;19923;-47
2022/07/02 10:41:23;;;;;;;;;;;24.50;70.70;;;;;;5033693;28;19916;-52
2022/07/02 10:44:09;;;;;;;;;;;24.70;70.80;;;;;;5046250;28;19911;-50
2022/07/02 10:46:55;;;;;;;;;;;24.80;70.10;;;;;;5052509;28;19920;-49
2022/07/02 10:49:39;;;;;;;;;;;24.80;69.70;;;;;;5053176;28;19950;-55
2022/07/02 10:52:56;;;;;;;;;;;24.80;69.40;;;;;;5054211;28;19962;-51
2022/07/02 10:55:42;;;;;;;;;;;25.00;69.90;;;;;;5018943;28;20363;-48
2022/07/02 10:58:27;;;;;;;;;;;25.00;68.40;;;;;;5043906;28;20308;-48
2022/07/02 11:01:15;;;;;;;;;;;24.60;68.60;;;;;;5033515;28;19912;-49
2022/07/02 11:04:01;;;;;;;;;;;24.30;69.00;;;;;;5033462;28;20585;-46
2022/07/02 11:06:45;;;;;;;;;;;24.20;68.90;;;;;;5032978;28;19920;-51
2022/07/02 11:09:29;;;;;;;;;;;24.20;69.30;;;;;;5033128;28;20004;-51
2022/07/02 11:12:16;;;;;;;;;;;24.40;69.40;;;;;;5033151;28;19915;-50
2022/07/02 11:15:01;;;;;;;;;;;24.40;69.40;;;;;;5033316;28;20599;-46
2022/07/02 11:17:47;;;;;;;;;;;24.40;69.00;;;;;;5034001;28;19962;-50
2022/07/02 11:20:35;;;;;;;;;;;24.50;67.40;;;;;;5033231;28;19927;-50
2022/07/02 11:23:19;;;;;;;;;;;24.60;67.90;;;;;;5034283;28;19955;-51
2022/07/02 11:26:03;;;;;;;;;;;24.80;66.50;;;;;;5032430;28;19916;-51
2022/07/02 11:28:48;;;;;;;;;;;24.70;65.80;;;;;;5032535;28;20395;-48
2022/07/02 11:31:35;;;;;;;;;;;24.60;67.70;;;;;;5034077;28;19912;-47
2022/07/02 11:34:20;;;;;;;;;;;24.90;66.30;;;;;;5033901;28;19963;-52
2022/07/02 11:37:04;;;;;;;;;;;25.00;66.00;;;;;;5033127;28;19960;-45
2022/07/02 11:39:48;;;;;;;;;;;24.90;67.00;;;;;;5032594;28;19923;-52
2022/07/02 11:42:35;;;;;;;;;;;24.70;66.00;;;;;;5032817;28;19971;-49
2022/07/02 11:45:19;;;;;;;;;;;24.80;66.20;;;;;;5052049;28;19912;-46
2022/07/02 11:48:03;;;;;;;;;;;24.90;66.40;;;;;;5052329;28;19939;-47
2022/07/02 11:51:07;;;;;;;;;;;25.10;65.50;;;;;;5052980;28;20578;-51
2022/07/02 11:53:56;;;;;;;;;;;25.20;64.90;;;;;;5052331;28;19970;-53
2022/07/02 11:56:41;;;;;;;;;;;25.30;64.90;;;;;;5052759;28;19911;-50
2022/07/02 11:59:26;;;;;;;;;;;25.60;66.20;;;;;;5037761;28;20307;-55
2022/07/02 12:02:10;;;;;;;;;;;25.70;64.90;;;;;;5038413;28;19916;-53
2022/07/02 12:04:54;;;;;;;;;;;25.60;64.50;;;;;;5039425;28;19920;-50
2022/07/02 12:07:42;;;;;;;;;;;25.60;65.20;;;;;;5032936;28;20000;-52
2022/07/02 12:10:27;;;;;;;;;;;25.40;64.00;;;;;;5034454;28;19992;-51
2022/07/02 12:13:11;;;;;;;;;;;25.50;64.10;;;;;;5036719;28;20366;-53
2022/07/02 12:15:55;;;;;;;;;;;25.70;64.90;;;;;;5036199;28;19911;-45
2022/07/02 12:18:40;;;;;;;;;;;25.80;64.40;;;;;;5036865;28;20367;-46
2022/07/02 12:21:32;;;;;;;;;;;26.10;65.30;;;;;;5035012;28;19966;-51
2022/07/02 12:24:22;;;;;;;;;;;26.40;64.40;;;;;;5036219;28;20012;-54
2022/07/02 12:27:07;;;;;;;;;;;26.20;63.70;;;;;;5035586;28;19912;-48
2022/07/02 12:29:58;;;;;;;;;;;26.20;64.10;;;;;;5036141;28;19915;-48
2022/07/02 12:32:50;;;;;;;;;;;26.20;64.10;;;;;;5035585;28;19911;-47
2022/07/02 12:35:34;;;;;;;;;;;26.10;64.30;;;;;;5036204;28;20292;-49
2022/07/02 12:38:19;;;;;;;;;;;26.00;64.40;;;;;;5036074;28;19920;-46
2022/07/02 12:41:04;;;;;;;;;;;26.00;63.50;;;;;;5035550;28;19962;-53
2022/07/02 12:43:52;;;;;;;;;;;25.90;63.00;;;;;;5035264;28;19916;-53
2022/07/02 12:46:43;;;;;;;;;;;26.00;63.50;;;;;;5054880;28;19954;-50
2022/07/02 12:49:27;;;;;;;;;;;25.90;63.80;;;;;;5055615;28;20279;-56
2022/07/02 12:52:12;;;;;;;;;;;25.80;63.50;;;;;;5056140;28;19962;-53
2022/07/02 12:54:57;;;;;;;;;;;25.90;64.00;;;;;;5055513;28;19978;-53
2022/07/02 12:57:41;;;;;;;;;;;25.70;63.80;;;;;;5053238;28;20426;-50
2022/07/02 13:00:26;;;;;;;;;;;25.90;64.40;;;;;;5035358;28;19916;-52
2022/07/02 13:03:11;;;;;;;;;;;26.30;63.80;;;;;;5035580;28;19955;-52
2022/07/02 13:05:57;;;;;;;;;;;26.60;63.50;;;;;;5034786;28;19912;-53
2022/07/02 13:08:41;;;;;;;;;;;26.70;63.10;;;;;;5034717;28;19911;-54
2022/07/02 13:11:27;;;;;;;;;;;26.60;63.20;;;;;;5034806;28;19916;-49
2022/07/02 13:14:11;;;;;;;;;;;26.50;61.80;;;;;;5035146;28;19919;-51
2022/07/02 13:16:55;;;;;;;;;;;26.50;63.00;;;;;;5034716;28;19920;-54
2022/07/02 13:19:42;;;;;;;;;;;26.70;61.70;;;;;;5035534;28;19912;-49
2022/07/02 13:22:26;;;;;;;;;;;26.90;61.90;;;;;;5033907;28;19966;-46
2022/07/02 13:25:11;;;;;;;;;;;27.00;62.00;;;;;;5034892;28;19996;-51
2022/07/02 13:27:55;;;;;;;;;;;27.30;61.10;;;;;;5034011;28;19915;-53
2022/07/02 13:30:40;;;;;;;;;;;27.60;61.20;;;;;;5035385;28;19944;-49
2022/07/02 13:33:24;;;;;;;;;;;27.70;60.80;;;;;;5035873;28;19971;-49
2022/07/02 13:36:08;;;;;;;;;;;27.70;60.00;;;;;;5034702;28;19916;-54
2022/07/02 13:38:53;;;;;;;;;;;27.80;60.60;;;;;;5034903;28;19958;-50
2022/07/02 13:41:37;;;;;;;;;;;28.00;60.50;;;;;;5035450;28;20291;-49
2022/07/02 13:44:21;;;;;;;;;;;28.20;60.00;;;;;;5049819;28;19915;-50
2022/07/02 13:47:05;;;;;;;;;;;28.30;60.20;;;;;;5053846;28;19919;-49
2022/07/02 13:49:50;;;;;;;;;;;28.40;60.60;;;;;;5054434;28;20016;-49
2022/07/02 13:52:34;;;;;;;;;;;28.30;60.20;;;;;;5039104;28;20005;-47
2022/07/02 13:55:19;;;;;;;;;;;28.10;60.70;;;;;;5053955;28;19916;-51
2022/07/02 13:58:03;;;;;;;;;;;28.10;60.70;;;;;;5049119;28;20098;-51
2022/07/02 14:00:48;;;;;;;;;;;28.60;60.70;;;;;;5034058;28;20051;-51
2022/07/02 14:03:32;;;;;;;;;;;28.90;60.40;;;;;;5034128;28;19963;-52
2022/07/02 14:06:16;;;;;;;;;;;29.20;60.60;;;;;;5018369;28;20276;-51
2022/07/02 14:09:01;;;;;;;;;;;29.10;59.00;;;;;;5034039;28;19912;-52
2022/07/02 14:11:45;;;;;;;;;;;29.20;60.00;;;;;;5034065;28;20395;-54
2022/07/02 14:14:30;;;;;;;;;;;29.10;58.30;;;;;;5034348;28;19968;-52
2022/07/02 14:17:15;;;;;;;;;;;28.40;58.50;;;;;;5017680;28;20294;-51
2022/07/02 14:19:59;;;;;;;;;;;28.30;59.00;;;;;;5034070;28;20284;-49
2022/07/02 14:22:44;;;;;;;;;;;28.30;58.40;;;;;;5036698;28;19959;-50
2022/07/02 14:25:28;;;;;;;;;;;28.40;58.70;;;;;;5036696;28;19912;-52
2022/07/02 14:28:13;;;;;;;;;;;28.70;59.40;;;;;;5036316;28;19916;-52
2022/07/02 14:30:57;;;;;;;;;;;29.20;61.20;;;;;;5037302;28;20378;-51
2022/07/02 14:33:42;;;;;;;;;;;29.60;57.90;;;;;;5036419;28;19946;-53
2022/07/02 14:36:26;;;;;;;;;;;29.80;56.90;;;;;;5035648;28;19912;-59
2022/07/02 14:39:10;;;;;;;;;;;30.00;58.50;;;;;;5034497;28;20352;-52
2022/07/02 14:41:54;;;;;;;;;;;30.20;57.80;;;;;;5034584;28;20006;-53
2022/07/02 14:44:39;;;;;;;;;;;30.50;57.80;;;;;;5050907;28;19911;-51
2022/07/02 14:47:23;;;;;;;;;;;30.00;55.70;;;;;;5052626;28;19920;-54
2022/07/02 14:50:08;;;;;;;;;;;30.00;56.20;;;;;;5053202;28;19947;-50
2022/07/02 14:52:52;;;;;;;;;;;29.70;56.30;;;;;;5053067;28;20341;-49
2022/07/02 14:55:36;;;;;;;;;;;29.40;56.30;;;;;;5052902;28;20371;-49
2022/07/02 14:58:20;;;;;;;;;;;29.30;56.40;;;;;;5029058;28;19963;-50
2022/07/02 15:01:04;;;;;;;;;;;29.60;56.70;;;;;;5033283;28;19920;-50
2022/07/02 15:03:49;;;;;;;;;;;30.00;56.60;;;;;;5033954;28;19912;-49
2022/07/02 15:06:33;;;;;;;;;;;30.10;56.70;;;;;;5033099;28;19920;-48
2022/07/02 15:09:17;;;;;;;;;;;30.50;57.20;;;;;;5033611;28;19979;-48
2022/07/02 15:12:02;;;;;;;;;;;31.00;57.20;;;;;;5033712;28;20399;-54
2022/07/02 15:17:49;;;;;;;;;;;31.00;55.60;;;;;;5032024;28;20088;-48
2022/07/02 15:20:38;;;;;;;;;;;31.30;54.90;;;;;;5033102;28;20136;-47
2022/07/02 15:23:22;;;;;;;;;;;30.50;52.70;;;;;;5035279;28;19982;-54
2022/07/02 15:26:07;;;;;;;;;;;30.10;53.70;;;;;;5038375;28;19951;-53
2022/07/02 15:28:52;;;;;;;;;;;30.00;54.70;;;;;;5037027;28;19990;-48
2022/07/02 15:31:38;;;;;;;;;;;30.40;55.60;;;;;;5032633;28;19943;-48
2022/07/02 15:34:23;;;;;;;;;;;30.60;53.80;;;;;;5031872;28;19916;-52
2022/07/02 15:37:10;;;;;;;;;;;30.50;54.60;;;;;;5032177;28;20363;-49
2022/07/02 15:39:55;;;;;;;;;;;30.70;54.10;;;;;;5032290;28;19920;-58
2022/07/02 15:42:39;;;;;;;;;;;31.00;55.00;;;;;;5032656;28;20249;-54
2022/07/02 15:45:23;;;;;;;;;;;31.40;55.00;;;;;;5031418;28;19966;-51
2022/07/02 15:48:10;;;;;;;;;;;31.50;53.20;;;;;;5033946;28;19986;-50
2022/07/02 15:51:00;;;;;;;;;;;31.40;53.60;;;;;;5032396;28;19963;-52
2022/07/02 15:53:49;;;;;;;;;;;31.50;53.30;;;;;;5032307;28;19920;-48
2022/07/02 15:56:35;;;;;;;;;;;31.60;53.90;;;;;;5032011;28;19920;-57
2022/07/02 15:59:20;;;;;;;;;;;31.60;53.50;;;;;;5031833;28;19916;-49
2022/07/02 16:02:06;;;;;;;;;;;31.70;52.80;;;;;;5032316;28;20036;-50
2022/07/02 16:04:52;;;;;;;;;;;32.00;52.90;;;;;;5032305;28;20289;-50
2022/07/02 16:07:47;;;;;;;;;;;32.10;52.00;;;;;;5032473;28;19951;-53
2022/07/02 16:10:31;;;;;;;;;;;32.10;52.80;;;;;;5031871;28;20339;-52